createdAt,value
2019-04-14T00:01:08.656Z,60.70
2019-04-14T00:03:39.708Z,61.30
2019-04-14T00:06:09.164Z,60.60
2019-04-14T00:08:39.426Z,60.60
2019-04-14T00:11:08.922Z,60.60
2019-04-14T00:13:39.266Z,60.90
2019-04-14T00:16:09.590Z,60.60
2019-04-14T00:18:40.352Z,60.80
2019-04-14T00:21:10.780Z,60.60
2019-04-14T00:23:41.230Z,60.70
2019-04-14T00:26:29.325Z,60.90
2019-04-14T00:29:00.089Z,61.30
2019-04-14T00:31:30.766Z,61.20
2019-04-14T00:34:02.871Z,61.50
2019-04-14T00:36:34.946Z,61.70
2019-04-14T00:39:07.481Z,61.40
2019-04-14T00:41:51.934Z,61.30
2019-04-14T00:44:34.446Z,61.20
2019-04-14T00:47:05.355Z,61.20
2019-04-14T00:49:35.424Z,61.00
2019-04-14T00:52:05.733Z,61.40
2019-04-14T00:54:35.273Z,61.60
2019-04-14T00:57:05.143Z,61.50
2019-04-14T00:59:35.453Z,61.50
2019-04-14T01:02:05.860Z,61.20
2019-04-14T01:04:36.114Z,61.20
2019-04-14T01:07:06.489Z,61.20
2019-04-14T01:09:36.938Z,61.50
2019-04-14T01:12:06.306Z,61.80
2019-04-14T01:14:36.562Z,61.60
2019-04-14T01:17:06.913Z,61.90
2019-04-14T01:19:37.297Z,62.20
2019-04-14T01:22:07.659Z,62.10
2019-04-14T01:24:38.111Z,62.10
2019-04-14T01:27:08.116Z,62.00
2019-04-14T01:29:38.655Z,62.30
2019-04-14T01:32:08.827Z,62.60
2019-04-14T01:34:39.143Z,62.70
2019-04-14T01:37:09.319Z,62.70
2019-04-14T01:39:39.317Z,62.80
2019-04-14T01:42:09.521Z,62.80
2019-04-14T01:44:39.578Z,62.90
2019-04-14T01:47:10.092Z,63.10
2019-04-14T01:49:39.721Z,63.10
2019-04-14T01:52:13.194Z,63.10
2019-04-14T01:54:45.195Z,63.10
2019-04-14T01:57:26.300Z,62.80
2019-04-14T01:59:56.697Z,63.40
2019-04-14T02:02:27.683Z,63.20
2019-04-14T02:04:57.551Z,63.10
2019-04-14T02:07:27.657Z,63.50
2019-04-14T02:09:57.536Z,63.20
2019-04-14T02:12:27.889Z,63.50
2019-04-14T02:14:58.228Z,63.10
2019-04-14T02:17:28.494Z,63.40
2019-04-14T02:19:58.854Z,63.00
2019-04-14T02:22:29.115Z,62.70
2019-04-14T02:24:59.262Z,63.00
2019-04-14T02:27:29.736Z,62.70
2019-04-14T02:30:00.344Z,63.10
2019-04-14T02:33:00.428Z,63.00
2019-04-14T02:35:35.117Z,63.30
2019-04-14T02:38:08.939Z,63.30
2019-04-14T02:40:36.328Z,62.90
2019-04-14T02:43:02.739Z,62.90
2019-04-14T02:45:45.205Z,62.60
2019-04-14T02:48:20.298Z,62.80
2019-04-14T02:50:30.640Z,63.00
2019-04-14T02:53:07.692Z,63.50
2019-04-14T02:55:42.210Z,64.10
2019-04-14T02:58:10.434Z,64.20
2019-04-14T03:00:41.714Z,63.70
2019-04-14T03:03:16.137Z,63.20
2019-04-14T03:05:44.684Z,63.20
2019-04-14T03:08:15.836Z,63.10
2019-04-14T03:15:48.229Z,63.80
2019-04-14T03:23:46.774Z,64.30
2019-04-14T03:26:17.773Z,64.70
2019-04-14T03:28:51.380Z,64.90
2019-04-14T03:41:31.625Z,64.80
2019-04-14T03:43:54.433Z,64.60
2019-04-14T03:51:43.131Z,64.70
2019-04-14T03:53:58.998Z,64.40
2019-04-14T03:56:14.922Z,64.60
2019-04-14T03:58:44.426Z,64.10
2019-04-14T04:01:15.003Z,64.90
2019-04-14T04:03:45.675Z,64.80
2019-04-14T04:06:15.961Z,64.90
2019-04-14T04:08:46.390Z,64.40
2019-04-14T04:11:15.802Z,64.30
2019-04-14T04:13:45.528Z,64.80
2019-04-14T04:16:16.595Z,64.70
2019-04-14T04:18:56.434Z,64.70
2019-04-14T04:21:35.540Z,64.40
2019-04-14T04:24:12.866Z,64.30
2019-04-14T04:26:44.848Z,64.50
2019-04-14T04:29:15.948Z,64.40
2019-04-14T04:31:58.970Z,64.70
2019-04-14T04:34:33.810Z,64.30
2019-04-14T04:37:08.333Z,64.30
2019-04-14T04:39:39.777Z,64.60
2019-04-14T04:42:11.292Z,65.20
2019-04-14T04:44:40.622Z,64.80
2019-04-14T04:47:10.037Z,64.50
2019-04-14T04:49:40.448Z,64.50
2019-04-14T04:52:11.426Z,64.30
2019-04-14T04:54:40.761Z,64.00
2019-04-14T04:57:11.066Z,64.30
2019-04-14T04:59:40.941Z,64.20
2019-04-14T05:02:11.249Z,64.60
2019-04-14T05:04:41.600Z,65.70
2019-04-14T05:07:12.174Z,64.70
2019-04-14T05:09:49.140Z,64.60
2019-04-14T05:12:35.003Z,64.20
2019-04-14T05:15:07.770Z,64.70
2019-04-14T05:17:45.271Z,64.50
2019-04-14T05:20:15.845Z,64.40
2019-04-14T05:22:46.177Z,63.70
2019-04-14T05:25:16.669Z,63.90
2019-04-14T05:27:47.273Z,63.60
2019-04-14T05:30:17.562Z,63.40
2019-04-14T05:32:47.948Z,63.20
2019-04-14T05:35:18.402Z,63.40
2019-04-14T05:37:48.671Z,63.60
2019-04-14T05:40:18.887Z,63.90
2019-04-14T05:42:49.365Z,63.50
2019-04-14T05:45:19.763Z,63.20
2019-04-14T05:47:50.132Z,62.70
2019-04-14T05:50:20.575Z,63.20
2019-04-14T05:52:49.932Z,63.50
2019-04-14T05:55:19.898Z,63.50
2019-04-14T05:57:50.174Z,64.10
2019-04-14T06:00:21.150Z,63.10
2019-04-14T06:02:50.728Z,62.20
2019-04-14T06:05:21.156Z,62.70
2019-04-14T06:07:50.486Z,62.90
2019-04-14T06:10:19.777Z,62.60
2019-04-14T06:12:49.031Z,62.80
2019-04-14T06:15:18.316Z,62.90
2019-04-14T06:17:47.575Z,62.90
2019-04-14T06:20:16.858Z,63.00
2019-04-14T06:22:46.191Z,63.10
2019-04-14T06:25:15.548Z,63.00
2019-04-14T06:27:44.810Z,63.00
2019-04-14T06:30:31.850Z,63.00
2019-04-14T06:33:02.754Z,63.20
2019-04-14T06:35:33.756Z,64.20
2019-04-14T06:38:05.943Z,63.20
2019-04-14T06:40:37.059Z,63.20
2019-04-14T06:43:06.318Z,63.30
2019-04-14T06:45:35.671Z,63.50
2019-04-14T06:48:04.936Z,63.10
2019-04-14T06:50:34.243Z,63.60
2019-04-14T06:53:03.504Z,63.40
2019-04-14T06:55:32.787Z,63.70
2019-04-14T06:58:02.114Z,63.80
2019-04-14T07:00:31.573Z,63.50
2019-04-14T07:03:00.841Z,63.30
2019-04-14T07:05:31.186Z,63.10
2019-04-14T07:08:00.475Z,63.00
2019-04-14T07:10:29.736Z,62.80
2019-04-14T07:12:59.019Z,62.50
2019-04-14T07:15:28.279Z,61.80
2019-04-14T07:17:57.571Z,61.20
2019-04-14T07:20:26.882Z,60.30
2019-04-14T07:22:56.167Z,60.20
2019-04-14T07:25:25.427Z,59.10
2019-04-14T07:27:54.724Z,58.30
2019-04-14T07:30:37.656Z,58.70
2019-04-14T07:33:11.447Z,57.90
2019-04-14T07:38:35.048Z,57.00
2019-04-14T07:41:08.663Z,56.70
2019-04-14T07:43:51.383Z,56.30
2019-04-14T07:46:39.003Z,56.20
2019-04-14T07:49:09.935Z,56.40
2019-04-14T07:51:40.842Z,57.60
2019-04-14T07:54:23.825Z,57.40
2019-04-14T07:56:57.692Z,57.70
2019-04-14T07:59:28.622Z,57.30
2019-04-14T08:01:59.514Z,58.30
2019-04-14T08:04:30.444Z,58.10
2019-04-14T08:06:59.708Z,57.80
2019-04-14T08:09:28.995Z,57.30
2019-04-14T08:11:58.499Z,57.90
2019-04-14T08:14:27.792Z,57.50
2019-04-14T08:16:57.147Z,55.40
2019-04-14T08:19:26.421Z,55.20
2019-04-14T08:21:55.708Z,55.20
2019-04-14T08:24:25.115Z,53.50
2019-04-14T08:26:55.497Z,54.30
2019-04-14T08:29:24.786Z,52.40
2019-04-14T08:31:54.171Z,52.90
2019-04-14T08:34:23.732Z,50.30
2019-04-14T08:36:53.102Z,49.90
2019-04-14T08:39:22.503Z,49.70
2019-04-14T08:41:53.499Z,50.00
2019-04-14T08:44:40.799Z,50.70
2019-04-14T08:47:20.779Z,50.50
2019-04-14T08:49:51.691Z,49.80
2019-04-14T08:52:24.107Z,48.50
2019-04-14T08:55:01.058Z,48.00
2019-04-14T08:57:37.672Z,47.60
2019-04-14T09:00:08.654Z,46.70
2019-04-14T09:02:54.989Z,45.90
2019-04-14T09:05:32.126Z,47.50
2019-04-14T09:08:12.065Z,46.80
2019-04-14T09:10:42.967Z,46.10
2019-04-14T09:13:12.399Z,45.80
2019-04-14T09:15:41.742Z,44.70
2019-04-14T09:18:11.031Z,45.00
2019-04-14T09:20:51.755Z,45.20
2019-04-14T09:23:11.212Z,46.10
2019-04-14T09:25:40.480Z,46.70
2019-04-14T09:28:09.875Z,44.70
2019-04-14T09:30:39.212Z,44.30
2019-04-14T09:33:08.506Z,44.20
2019-04-14T09:35:37.771Z,44.30
2019-04-14T09:38:07.059Z,43.80
2019-04-14T09:40:36.472Z,44.40
2019-04-14T09:43:05.999Z,43.60
2019-04-14T09:45:35.265Z,43.50
2019-04-14T09:48:04.626Z,43.60
2019-04-14T09:50:35.059Z,44.20
2019-04-14T09:53:04.409Z,44.10
2019-04-14T09:55:34.035Z,43.60
2019-04-14T09:58:03.401Z,42.80
2019-04-14T10:00:34.563Z,42.60
2019-04-14T10:03:04.000Z,43.70
2019-04-14T10:05:34.374Z,44.70
2019-04-14T10:08:03.643Z,45.30
2019-04-14T10:10:33.112Z,44.50
2019-04-14T10:13:02.455Z,44.40
2019-04-14T10:15:31.886Z,42.30
2019-04-14T10:18:01.235Z,41.40
2019-04-14T10:20:30.596Z,40.60
2019-04-14T10:23:00.940Z,41.00
2019-04-14T10:25:30.228Z,41.00
2019-04-14T10:27:59.491Z,41.30
2019-04-14T10:30:28.785Z,43.00
2019-04-14T10:32:58.144Z,43.90
2019-04-14T10:35:27.411Z,43.80
2019-04-14T10:37:56.711Z,42.90
2019-04-14T10:40:25.975Z,43.20
2019-04-14T10:42:55.338Z,44.10
2019-04-14T10:45:24.599Z,42.90
2019-04-14T10:47:53.890Z,42.00
2019-04-14T10:50:30.737Z,41.40
2019-04-14T10:52:54.340Z,42.80
2019-04-14T10:55:23.603Z,43.40
2019-04-14T10:57:52.967Z,44.30
2019-04-14T11:00:22.612Z,44.70
2019-04-14T11:02:51.976Z,45.20
2019-04-14T11:05:21.620Z,44.70
2019-04-14T11:07:50.986Z,43.90
2019-04-14T11:10:20.263Z,44.30
2019-04-14T11:12:49.734Z,43.20
2019-04-14T11:15:19.086Z,41.70
2019-04-14T11:17:48.449Z,41.70
2019-04-14T11:20:17.791Z,41.90
2019-04-14T11:22:47.160Z,41.60
2019-04-14T11:25:16.523Z,41.90
2019-04-14T11:27:45.842Z,42.70
2019-04-14T11:30:16.779Z,42.30
2019-04-14T11:32:48.766Z,42.80
2019-04-14T11:35:22.517Z,43.40
2019-04-14T11:37:59.450Z,44.10
2019-04-14T11:40:30.387Z,44.10
2019-04-14T11:42:59.663Z,44.30
2019-04-14T11:45:29.094Z,46.00
2019-04-14T11:47:58.427Z,44.70
2019-04-14T11:50:27.727Z,45.20
2019-04-14T11:52:57.072Z,45.30
2019-04-14T11:55:26.386Z,45.00
2019-04-14T11:57:55.653Z,45.50
2019-04-14T12:00:35.548Z,45.20
2019-04-14T12:03:06.535Z,45.10
2019-04-14T12:05:43.085Z,46.10
2019-04-14T12:08:13.988Z,46.40
2019-04-14T12:10:43.280Z,45.80
2019-04-14T12:13:12.623Z,46.10
2019-04-14T12:15:41.926Z,46.90
2019-04-14T12:18:11.182Z,46.20
2019-04-14T12:20:40.474Z,45.90
2019-04-14T12:23:09.743Z,45.60
2019-04-14T12:25:39.031Z,45.60
2019-04-14T12:28:09.202Z,45.00
2019-04-14T12:30:39.791Z,45.00
2019-04-14T12:33:09.301Z,45.60
2019-04-14T12:35:38.599Z,45.50
2019-04-14T12:38:07.863Z,45.70
2019-04-14T12:40:37.175Z,45.30
2019-04-14T12:43:22.970Z,45.00
2019-04-14T12:46:00.010Z,45.00
2019-04-14T12:48:33.699Z,45.10
2019-04-14T12:51:10.843Z,44.90
2019-04-14T12:53:40.175Z,44.80
2019-04-14T12:56:09.508Z,44.60
2019-04-14T12:58:40.414Z,44.90
2019-04-14T13:01:11.343Z,44.30
2019-04-14T13:03:42.030Z,43.80
2019-04-14T13:06:11.581Z,44.40
2019-04-14T13:08:40.943Z,43.60
2019-04-14T13:11:10.235Z,44.10
2019-04-14T13:13:39.544Z,44.40
2019-04-14T13:16:08.870Z,44.10
2019-04-14T13:18:38.107Z,44.00
2019-04-14T13:21:07.483Z,44.90
2019-04-14T13:23:36.842Z,45.00
2019-04-14T13:26:07.183Z,45.50
2019-04-14T13:28:36.468Z,45.20
2019-04-14T13:31:05.802Z,45.60
2019-04-14T13:33:35.095Z,45.30
2019-04-14T13:36:05.432Z,45.50
2019-04-14T13:38:34.799Z,45.00
2019-04-14T13:41:04.263Z,45.20
2019-04-14T13:43:33.623Z,44.60
2019-04-14T13:46:02.968Z,45.50
2019-04-14T13:48:32.330Z,44.50
2019-04-14T13:51:01.595Z,44.80
2019-04-14T13:53:31.118Z,44.40
2019-04-14T13:56:02.095Z,44.10
2019-04-14T13:58:31.613Z,43.30
2019-04-14T14:01:00.951Z,43.70
2019-04-14T14:03:30.311Z,43.50
2019-04-14T14:05:59.579Z,43.30
2019-04-14T14:08:29.942Z,42.90
2019-04-14T14:11:00.855Z,42.30
2019-04-14T14:13:34.831Z,42.60
2019-04-14T14:16:16.210Z,43.40
2019-04-14T14:18:49.688Z,43.20
2019-04-14T14:21:38.743Z,42.50
2019-04-14T14:24:18.215Z,43.30
2019-04-14T14:26:55.196Z,42.70
2019-04-14T14:29:24.507Z,42.10
2019-04-14T14:31:54.498Z,42.40
2019-04-14T14:34:23.789Z,42.90
2019-04-14T14:36:53.191Z,43.00
2019-04-14T14:39:22.518Z,43.40
2019-04-14T14:41:51.891Z,43.40
2019-04-14T14:44:22.795Z,43.70
2019-04-14T14:47:00.383Z,43.50
2019-04-14T14:49:48.275Z,43.70
2019-04-14T14:52:19.210Z,43.20
2019-04-14T14:54:50.229Z,42.80
2019-04-14T14:57:23.120Z,42.80
2019-04-14T14:59:54.210Z,43.30
2019-04-14T15:02:23.917Z,43.00
2019-04-14T15:04:53.364Z,43.20
2019-04-14T15:07:24.347Z,42.90
2019-04-14T15:09:54.010Z,43.30
2019-04-14T15:12:23.530Z,43.30
2019-04-14T15:14:53.192Z,43.80
2019-04-14T15:17:25.620Z,43.70
2019-04-14T15:19:54.983Z,43.80
2019-04-14T15:22:24.378Z,44.20
2019-04-14T15:24:53.691Z,44.10
2019-04-14T15:27:23.067Z,44.70
2019-04-14T15:29:55.314Z,45.00
2019-04-14T15:32:24.616Z,45.20
2019-04-14T15:34:54.090Z,45.80
2019-04-14T15:37:23.539Z,46.10
2019-04-14T15:39:52.896Z,45.50
2019-04-14T15:42:22.294Z,45.60
2019-04-14T15:44:51.655Z,46.00
2019-04-14T15:47:21.006Z,46.60
2019-04-14T15:49:50.377Z,46.20
2019-04-14T15:52:19.868Z,47.00
2019-04-14T15:54:49.132Z,46.70
2019-04-14T15:57:20.103Z,46.70
2019-04-14T16:00:07.579Z,46.40
2019-04-14T16:02:41.215Z,46.80
2019-04-14T16:05:15.203Z,46.90
2019-04-14T16:07:46.124Z,47.20
2019-04-14T16:10:17.059Z,47.10
2019-04-14T16:12:47.967Z,47.20
2019-04-14T16:15:24.763Z,47.20
2019-04-14T16:18:11.048Z,47.90
2019-04-14T16:20:42.187Z,48.00
2019-04-14T16:23:11.505Z,48.50
2019-04-14T16:25:42.430Z,49.20
2019-04-14T16:28:19.599Z,48.90
2019-04-14T16:31:02.560Z,48.50
2019-04-14T16:33:36.578Z,49.20
2019-04-14T16:36:05.938Z,48.60
2019-04-14T16:38:35.277Z,48.90
2019-04-14T16:41:04.634Z,48.50
2019-04-14T16:43:34.065Z,48.80
2019-04-14T16:46:03.446Z,48.70
2019-04-14T16:48:32.807Z,48.10
2019-04-14T16:51:02.411Z,48.10
2019-04-14T16:53:33.406Z,48.30
2019-04-14T16:56:20.605Z,48.60
2019-04-14T16:58:51.578Z,49.50
2019-04-14T17:01:35.086Z,49.70
2019-04-14T17:04:04.420Z,50.20
2019-04-14T17:06:33.823Z,50.30
2019-04-14T17:09:04.991Z,50.50
2019-04-14T17:11:35.906Z,50.80
2019-04-14T17:14:09.707Z,51.00
2019-04-14T17:16:40.639Z,51.10
2019-04-14T17:19:11.567Z,51.60
2019-04-14T17:21:42.549Z,51.30
2019-04-14T17:24:19.771Z,51.30
2019-04-14T17:26:53.962Z,51.40
2019-04-14T17:29:43.152Z,51.50
2019-04-14T17:32:19.921Z,51.40
2019-04-14T17:34:59.835Z,51.40
2019-04-14T17:37:49.351Z,51.70
2019-04-14T17:40:29.339Z,51.90
2019-04-14T17:43:03.407Z,51.60
2019-04-14T17:45:34.619Z,51.80
2019-04-14T17:48:08.265Z,52.90
2019-04-14T17:50:55.802Z,51.90
2019-04-14T17:53:26.779Z,52.20
2019-04-14T17:56:03.663Z,52.60
2019-04-14T17:58:34.664Z,52.50
2019-04-14T18:04:00.007Z,52.80
2019-04-14T18:06:30.934Z,53.10
2019-04-14T18:09:11.163Z,53.00
2019-04-14T18:11:50.976Z,53.30
2019-04-14T18:14:27.421Z,53.60
2019-04-14T18:17:06.658Z,53.40
2019-04-14T18:19:49.501Z,53.20
2019-04-14T18:22:18.787Z,53.40
2019-04-14T18:24:48.047Z,53.30
2019-04-14T18:27:17.335Z,53.10
2019-04-14T18:29:48.407Z,53.80
2019-04-14T18:32:28.155Z,53.80
2019-04-14T18:35:08.323Z,54.60
2019-04-14T18:37:54.407Z,54.70
2019-04-14T18:40:41.474Z,55.50
2019-04-14T18:43:12.479Z,55.70
2019-04-14T18:45:50.435Z,55.00
2019-04-14T18:48:39.891Z,55.90
2019-04-14T18:51:19.887Z,55.50
2019-04-14T18:53:56.707Z,55.50
2019-04-14T18:56:30.440Z,56.00
2019-04-14T18:59:04.507Z,55.20
2019-04-14T19:01:35.402Z,55.40
2019-04-14T19:04:05.462Z,55.80
2019-04-14T19:06:36.395Z,56.00
2019-04-14T19:09:07.187Z,55.50
2019-04-14T19:11:55.968Z,55.30
2019-04-14T19:14:26.895Z,55.30
2019-04-14T19:17:00.570Z,56.30
2019-04-14T19:19:31.231Z,55.80
2019-04-14T19:22:00.493Z,55.90
2019-04-14T19:24:29.776Z,56.50
2019-04-14T19:26:59.070Z,56.70
2019-04-14T19:29:28.323Z,57.00
2019-04-14T19:31:57.582Z,57.00
2019-04-14T19:34:26.876Z,57.40
2019-04-14T19:36:56.156Z,57.90
2019-04-14T19:39:25.510Z,57.90
2019-04-14T19:41:54.775Z,58.00
2019-04-14T19:44:24.137Z,58.00
2019-04-14T19:46:53.395Z,58.20
2019-04-14T19:49:22.682Z,58.40
2019-04-14T19:51:51.943Z,58.80
2019-04-14T19:54:21.228Z,59.50
2019-04-14T19:56:50.555Z,58.90
2019-04-14T19:59:19.847Z,59.20
2019-04-14T20:01:49.153Z,59.30
2019-04-14T20:04:18.525Z,59.30
2019-04-14T20:06:47.807Z,59.00
2019-04-14T20:09:17.076Z,59.10
2019-04-14T20:11:46.462Z,59.20
2019-04-14T20:14:15.795Z,59.60
2019-04-14T20:16:46.726Z,59.70
2019-04-14T20:19:23.622Z,59.80
2019-04-14T20:21:57.439Z,60.00
2019-04-14T20:24:37.282Z,60.20
2019-04-14T20:27:24.774Z,60.40
2019-04-14T20:29:58.759Z,60.40
2019-04-14T20:32:32.746Z,60.60
2019-04-14T20:35:02.145Z,60.70
2019-04-14T20:37:31.664Z,60.90
2019-04-14T20:40:00.890Z,61.10
2019-04-14T20:42:31.947Z,61.10
2019-04-14T20:45:01.477Z,61.50
2019-04-14T20:47:31.995Z,61.90
2019-04-14T20:50:01.251Z,62.20
2019-04-14T20:52:30.607Z,62.40
2019-04-14T20:54:59.887Z,63.00
2019-04-14T20:57:30.487Z,63.00
2019-04-14T20:59:59.939Z,63.50
2019-04-14T21:02:30.910Z,63.80
2019-04-14T21:05:13.983Z,63.90
2019-04-14T21:07:53.929Z,63.90
2019-04-14T21:10:24.851Z,63.90
2019-04-14T21:12:58.255Z,64.50
2019-04-14T21:15:32.370Z,64.90
2019-04-14T21:18:09.269Z,65.00
2019-04-14T21:20:53.300Z,65.40
2019-04-14T21:23:39.397Z,65.70
2019-04-14T21:26:15.955Z,66.00
2019-04-14T21:28:49.655Z,66.30
2019-04-14T21:31:23.499Z,66.70
2019-04-14T21:34:06.350Z,67.00
2019-04-14T21:36:53.723Z,67.60
2019-04-14T21:39:40.739Z,67.80
2019-04-14T21:42:11.258Z,68.50
2019-04-14T21:44:40.519Z,69.30
2019-04-14T21:47:10.879Z,72.00
2019-04-14T21:49:40.139Z,72.70
2019-04-14T21:52:20.342Z,73.10
2019-04-14T21:54:49.782Z,74.00
2019-04-14T21:57:26.918Z,75.50
2019-04-14T22:00:14.063Z,74.90
2019-04-14T22:03:01.674Z,76.00
2019-04-14T22:05:32.622Z,76.00
2019-04-14T22:08:12.806Z,76.20
2019-04-14T22:10:46.753Z,76.80
2019-04-14T22:13:16.308Z,77.90
2019-04-14T22:15:45.590Z,78.50
2019-04-14T22:18:15.626Z,76.90
2019-04-14T22:20:44.962Z,77.20
2019-04-14T22:23:14.301Z,77.20
2019-04-14T22:25:43.655Z,77.50
2019-04-14T22:28:12.914Z,77.90
2019-04-14T22:30:43.267Z,78.10
2019-04-14T22:33:12.535Z,78.30
2019-04-14T22:35:41.824Z,79.00
2019-04-14T22:38:11.082Z,78.20
2019-04-14T22:40:40.439Z,78.30
2019-04-14T22:43:09.780Z,77.90
2019-04-14T22:45:39.056Z,78.90
2019-04-14T22:48:08.391Z,79.40
2019-04-14T22:50:37.679Z,79.80
2019-04-14T22:53:06.945Z,80.10
2019-04-14T22:55:36.459Z,79.90
2019-04-14T22:58:05.783Z,79.40
2019-04-14T23:00:39.415Z,79.40
2019-04-14T23:03:13.038Z,79.60
2019-04-14T23:06:00.230Z,80.30
2019-04-14T23:08:40.291Z,80.40
2019-04-14T23:11:11.225Z,80.30
2019-04-14T23:13:42.150Z,80.80
2019-04-14T23:16:15.520Z,82.30
2019-04-14T23:18:49.479Z,80.80
2019-04-14T23:21:36.998Z,81.60
2019-04-14T23:24:16.938Z,82.60
2019-04-14T23:26:52.280Z,81.50
2019-04-14T23:29:17.200Z,82.10
2019-04-14T23:31:46.556Z,82.00
2019-04-14T23:34:15.835Z,81.80
2019-04-14T23:36:45.115Z,82.30
2019-04-14T23:39:14.471Z,82.90
2019-04-14T23:41:43.735Z,82.20
2019-04-14T23:44:13.020Z,81.70
2019-04-14T23:46:42.356Z,82.10
2019-04-14T23:49:11.635Z,82.40
2019-04-14T23:51:40.894Z,83.00
2019-04-14T23:54:10.176Z,82.90
2019-04-14T23:56:40.512Z,82.30
2019-04-14T23:59:09.866Z,84.30
